Time;durP1;ratioP1;P1;durP2;ratioP2;P2;SDS_P1;SDS_P2;PMS_P1;PMS_P2;Temp;Humidity;BMP_temperature;BMP_pressure;BME280_temperature;BME280_humidity;BME280_pressure;Samples;Min_cycle;Max_cycle;Signal;HPM_P1;HPM_P2
2021/12/24 00:01:59;;;;;;;153.70;36.28;;;6.40;99.90;;;;;;6101718;23;20608;-94
2021/12/24 00:04:25;;;;;;;189.57;37.33;;;6.60;99.90;;;;;;6101753;23;20030;-93
2021/12/24 00:06:52;;;;;;;192.23;37.25;;;6.70;99.90;;;;;;6102062;23;20069;-92
2021/12/24 00:09:23;;;;;;;185.05;37.55;;;6.60;99.90;;;;;;6129110;23;20024;-94
2021/12/24 00:11:59;;;;;;;157.02;34.05;;;6.70;99.90;;;;;;6196758;23;20109;-93
2021/12/24 00:14:26;;;;;;;178.68;35.03;;;6.50;99.90;;;;;;6196968;23;20026;-92
2021/12/24 00:17:04;;;;;;;127.78;32.13;;;6.70;99.90;;;;;;6221530;23;20020;-93
2021/12/24 00:35:57;;;;;;;118.57;28.83;;;7.20;99.90;;;;;;6160666;23;20120;-92
2021/12/24 00:38:23;;;;;;;124.65;30.25;;;6.80;99.90;;;;;;6160381;23;20048;-90
2021/12/24 00:40:48;;;;;;;133.38;32.15;;;7.20;99.90;;;;;;6159634;23;20025;-95
2021/12/24 00:43:16;;;;;;;107.15;30.20;;;6.90;99.90;;;;;;6135748;23;20104;-91
2021/12/24 00:45:46;;;;;;;105.30;28.90;;;6.90;99.90;;;;;;6135593;23;20021;-92
2021/12/24 00:48:15;;;;;;;130.05;32.05;;;7.20;99.90;;;;;;6160767;23;20021;-92
2021/12/24 00:51:07;;;;;;;114.93;31.67;;;6.90;99.90;;;;;;6135970;23;20554;-91
2021/12/24 00:56:08;;;;;;;81.93;27.13;;;7.00;99.90;;;;;;6161068;23;20361;-93
2021/12/24 00:58:35;;;;;;;95.43;28.05;;;6.90;99.90;;;;;;6135826;23;20032;-91
2021/12/24 01:01:13;;;;;;;110.68;29.98;;;7.00;99.90;;;;;;6148927;23;20351;-92
2021/12/24 01:03:39;;;;;;;88.95;28.67;;;7.00;99.90;;;;;;6195955;23;20078;-93
2021/12/24 01:06:05;;;;;;;87.90;28.05;;;7.00;99.90;;;;;;6196826;23;20022;-91
2021/12/24 01:09:04;;;;;;;98.20;29.15;;;7.10;99.90;;;;;;6220925;23;20091;-93
2021/12/24 01:11:30;;;;;;;78.85;25.83;;;7.00;99.90;;;;;;6195828;23;20024;-91
2021/12/24 01:13:59;;;;;;;68.10;22.52;;;6.90;99.90;;;;;;6195804;23;20090;-90
2021/12/24 01:16:48;;;;;;;81.80;26.92;;;7.10;99.90;;;;;;6196225;23;20460;-93
2021/12/24 01:19:19;;;;;;;95.10;27.83;;;7.10;99.90;;;;;;6197005;23;20055;-92
2021/12/24 01:24:47;;;;;;;70.28;25.13;;;7.30;99.90;;;;;;6221362;23;20088;-91
2021/12/24 01:44:26;;;;;;;75.35;25.55;;;7.20;99.90;;;;;;6015406;23;20027;-93
2021/12/24 01:46:54;;;;;;;65.82;22.30;;;7.30;99.90;;;;;;6014557;23;20038;-91
2021/12/24 01:49:20;;;;;;;77.35;24.73;;;7.40;99.90;;;;;;6015776;23;20027;-93
2021/12/24 01:51:46;;;;;;;67.20;22.30;;;7.40;99.90;;;;;;6014696;23;20023;-93
2021/12/24 01:54:11;;;;;;;62.30;19.95;;;7.60;99.90;;;;;;6014895;23;20030;-94
2021/12/24 01:56:40;;;;;;;81.47;23.67;;;7.40;99.90;;;;;;6040233;23;20023;-91
2021/12/24 01:59:06;;;;;;;75.65;24.05;;;7.50;99.90;;;;;;5993512;23;20029;-95
2021/12/24 02:01:31;;;;;;;72.32;22.63;;;7.70;99.90;;;;;;6030438;23;20051;-93
2021/12/24 02:03:57;;;;;;;94.45;25.40;;;7.50;99.90;;;;;;6038422;23;20066;-93
2021/12/24 02:06:23;;;;;;;66.05;22.58;;;7.50;99.90;;;;;;6036367;23;20381;-94
2021/12/24 02:08:48;;;;;;;60.30;21.23;;;7.50;99.90;;;;;;6076901;23;20419;-93
2021/12/24 02:11:14;;;;;;;55.97;20.27;;;7.50;99.90;;;;;;6076463;23;20026;-92
2021/12/24 02:13:40;;;;;;;65.63;21.85;;;7.50;99.90;;;;;;6175446;23;20106;-95
2021/12/24 02:16:41;;;;;;;117.07;26.08;;;7.70;99.90;;;;;;6166004;23;20021;-94
2021/12/24 02:29:59;;;;;;;58.85;20.67;;;7.90;99.90;;;;;;6105932;23;20069;-94
2021/12/24 02:32:25;;;;;;;65.70;21.20;;;7.80;99.90;;;;;;6103169;23;20029;-95
2021/12/24 02:34:51;;;;;;;72.22;22.35;;;7.70;99.90;;;;;;6101126;23;20018;-94
2021/12/24 02:37:18;;;;;;;82.85;23.08;;;7.90;99.90;;;;;;6077054;23;20394;-94
2021/12/24 02:39:44;;;;;;;59.83;20.60;;;7.80;99.90;;;;;;6079054;23;20497;-94
2021/12/24 02:42:15;;;;;;;59.83;21.20;;;7.80;99.90;;;;;;6079472;23;20018;-94
2021/12/24 02:44:42;;;;;;;102.07;23.40;;;7.80;99.90;;;;;;6082982;23;20026;-94
2021/12/24 02:55:00;;;;;;;81.65;22.00;;;7.90;99.90;;;;;;6106152;23;20032;-94
2021/12/24 02:57:28;;;;;;;63.38;20.15;;;8.10;99.90;;;;;;6079361;23;20050;-91
2021/12/24 02:59:59;;;;;;;72.13;19.17;;;8.10;99.90;;;;;;6103069;23;20077;-95
2021/12/24 03:02:30;;;;;;;58.95;20.05;;;8.00;99.90;;;;;;6083691;23;20119;-94
2021/12/24 03:04:56;;;;;;;53.95;18.00;;;8.00;99.90;;;;;;6185763;23;20441;-92
2021/12/24 03:07:22;;;;;;;54.22;18.42;;;8.20;99.90;;;;;;6222250;23;20448;-92
2021/12/24 03:09:48;;;;;;;46.10;17.15;;;8.00;99.90;;;;;;6194984;23;20131;-93
2021/12/24 03:12:14;;;;;;;57.17;18.48;;;8.10;99.90;;;;;;6191609;23;20075;-93
2021/12/24 03:14:42;;;;;;;51.90;16.50;;;8.20;99.90;;;;;;6197465;23;20062;-91
2021/12/24 03:17:12;;;;;;;41.45;15.68;;;8.20;99.90;;;;;;6196548;23;20078;-94
2021/12/24 03:19:38;;;;;;;46.80;15.63;;;8.40;99.90;;;;;;6198014;23;20027;-94
2021/12/24 03:22:40;;;;;;;45.65;14.70;;;8.30;99.90;;;;;;6198155;23;20436;-95
2021/12/24 03:24:51;;;;;;;40.55;14.15;;;8.80;99.90;;;;;;6224231;23;20016;-96
2021/12/24 03:27:18;;;;;;;34.15;12.55;;;8.30;99.90;;;;;;6198132;23;20051;-96
2021/12/24 03:29:43;;;;;;;41.45;14.95;;;8.40;99.90;;;;;;6227357;23;20099;-94
2021/12/24 03:32:09;;;;;;;33.78;12.82;;;8.40;99.90;;;;;;6224804;23;20024;-95
2021/12/24 03:34:36;;;;;;;42.22;13.88;;;8.30;99.90;;;;;;6199355;23;20027;-91
2021/12/24 03:37:04;;;;;;;43.38;14.05;;;8.50;99.90;;;;;;6198062;23;20074;-95
2021/12/24 03:39:30;;;;;;;43.17;13.55;;;8.40;99.90;;;;;;6223714;23;20020;-95
2021/12/24 03:41:57;;;;;;;39.88;13.43;;;8.50;99.90;;;;;;6223742;23;20483;-96
2021/12/24 03:44:31;;;;;;;40.40;14.10;;;8.70;99.90;;;;;;6197329;23;20020;-95
2021/12/24 03:47:05;;;;;;;44.15;15.20;;;9.00;99.90;;;;;;6199960;23;20055;-93
2021/12/24 03:55:15;;;;;;;58.22;17.77;;;8.50;99.90;;;;;;6222822;23;20017;-94
2021/12/24 03:57:41;;;;;;;61.70;19.42;;;8.70;99.90;;;;;;6196068;23;20042;-94
2021/12/24 04:00:22;;;;;;;54.70;18.67;;;8.60;99.90;;;;;;6222349;23;20387;-96
2021/12/24 04:02:48;;;;;;;51.03;20.60;;;8.50;99.90;;;;;;6216742;23;20021;-96
2021/12/24 04:05:14;;;;;;;54.28;20.42;;;8.50;99.90;;;;;;6190613;23;20017;-93
2021/12/24 04:07:40;;;;;;;64.90;22.75;;;8.60;99.90;;;;;;6168107;23;20021;-94
2021/12/24 04:12:51;;;;;;;85.43;26.45;;;8.50;99.90;;;;;;6194044;23;20028;-95
2021/12/24 04:15:17;;;;;;;73.85;25.10;;;8.60;99.90;;;;;;6194597;23;20336;-96
2021/12/24 04:17:44;;;;;;;78.50;25.83;;;8.60;99.90;;;;;;6191014;23;20013;-93
2021/12/24 04:25:39;;;;;;;70.75;24.50;;;8.40;99.90;;;;;;6192334;23;20100;-93
2021/12/24 04:28:05;;;;;;;65.38;21.20;;;8.70;99.90;;;;;;6167887;23;20028;-93
2021/12/24 04:30:39;;;;;;;73.78;25.08;;;8.50;99.90;;;;;;6168210;23;20028;-94
2021/12/24 04:33:14;;;;;;;67.28;22.45;;;8.60;99.90;;;;;;6169436;23;20026;-94
2021/12/24 04:35:44;;;;;;;70.82;24.00;;;8.60;99.90;;;;;;6167834;23;20032;-94
2021/12/24 04:38:31;;;;;;;100.18;25.70;;;8.50;99.90;;;;;;6169059;23;20048;-95
2021/12/24 04:52:01;;;;;;;78.40;25.05;;;8.50;99.90;;;;;;6193480;23;20024;-93
2021/12/24 05:03:00;;;;;;;87.05;26.45;;;8.40;99.90;;;;;;6198958;23;20090;-95
2021/12/24 05:05:39;;;;;;;71.57;24.25;;;8.40;99.90;;;;;;6182863;23;20017;-95
2021/12/24 05:10:38;;;;;;;584.65;87.97;;;8.40;99.90;;;;;;6225124;23;20031;-94
2021/12/24 05:13:06;;;;;;;86.50;24.90;;;8.40;99.90;;;;;;6199934;23;20100;-94
2021/12/24 05:15:36;;;;;;;97.57;27.45;;;8.40;99.90;;;;;;6199000;23;20020;-93
2021/12/24 05:23:20;;;;;;;112.18;28.75;;;8.50;99.90;;;;;;6221451;23;20474;-94
2021/12/24 05:25:47;;;;;;;454.83;45.85;;;8.30;99.90;;;;;;6192338;23;20029;-92
2021/12/24 05:28:14;;;;;;;97.78;27.00;;;8.60;99.90;;;;;;6196853;23;20440;-95
2021/12/24 05:30:40;;;;;;;103.47;22.02;;;8.40;99.90;;;;;;6196942;23;20372;-95
2021/12/24 05:33:11;;;;;;;102.90;26.58;;;8.50;99.90;;;;;;6196840;23;20016;-94
2021/12/24 05:35:36;;;;;;;99.88;27.25;;;8.40;99.90;;;;;;6197021;23;20409;-94
2021/12/24 05:38:02;;;;;;;88.88;26.67;;;8.20;99.90;;;;;;6195178;23;20024;-94
2021/12/24 05:40:28;;;;;;;88.85;25.75;;;8.50;99.90;;;;;;6192788;23;20032;-95
2021/12/24 05:42:54;;;;;;;84.40;25.98;;;8.40;99.90;;;;;;6222647;23;20350;-93
2021/12/24 05:45:20;;;;;;;112.35;26.70;;;8.50;99.90;;;;;;6193501;23;20025;-93
2021/12/24 05:47:45;;;;;;;88.00;27.02;;;8.40;99.90;;;;;;6199092;23;20471;-93
2021/12/24 05:50:11;;;;;;;97.63;27.73;;;8.40;99.90;;;;;;6198010;23;20020;-92
2021/12/24 05:52:37;;;;;;;83.15;25.55;;;8.30;99.90;;;;;;6193689;23;20024;-94
2021/12/24 05:55:07;;;;;;;82.97;25.38;;;8.40;99.90;;;;;;6221610;23;20470;-94
2021/12/24 05:57:33;;;;;;;72.40;21.37;;;8.40;99.90;;;;;;6222380;23;20478;-94
2021/12/24 05:59:59;;;;;;;75.03;22.27;;;8.60;99.90;;;;;;6197941;23;20584;-93
2021/12/24 06:02:25;;;;;;;92.82;24.80;;;8.20;99.90;;;;;;6194031;22;20111;-94
2021/12/24 06:05:23;;;;;;;68.32;20.95;;;8.50;99.90;;;;;;6167041;23;20071;-92
2021/12/24 06:07:49;;;;;;;64.80;20.90;;;8.40;99.90;;;;;;6190813;23;20075;-93
2021/12/24 06:10:15;;;;;;;67.00;21.73;;;8.30;99.90;;;;;;6216037;23;20017;-96
2021/12/24 06:12:41;;;;;;;78.45;23.00;;;8.40;99.90;;;;;;6191146;23;20016;-94
2021/12/24 06:15:08;;;;;;;74.57;20.27;;;8.40;99.90;;;;;;6167065;23;20302;-95
2021/12/24 06:17:37;;;;;;;57.83;20.08;;;8.40;99.90;;;;;;6167739;23;20095;-93
2021/12/24 06:20:12;;;;;;;70.90;18.98;;;8.40;99.90;;;;;;6165840;23;20012;-92
2021/12/24 06:22:38;;;;;;;59.42;20.20;;;8.50;99.90;;;;;;6165871;23;20025;-92
2021/12/24 06:25:04;;;;;;;64.00;20.00;;;8.60;99.90;;;;;;6191854;23;20091;-92
2021/12/24 06:27:30;;;;;;;65.22;19.33;;;8.30;99.90;;;;;;6166615;23;20051;-93
2021/12/24 06:29:56;;;;;;;60.08;18.42;;;8.70;99.90;;;;;;6166451;23;20020;-93
2021/12/24 06:32:22;;;;;;;70.50;18.88;;;8.70;99.90;;;;;;6165999;23;20455;-94
2021/12/24 06:34:49;;;;;;;49.85;17.95;;;8.30;99.90;;;;;;6191229;23;20016;-92
2021/12/24 06:37:16;;;;;;;55.05;17.70;;;8.30;99.90;;;;;;6167156;23;20071;-93
2021/12/24 06:39:42;;;;;;;51.65;17.20;;;8.30;99.90;;;;;;6191510;23;20056;-94
2021/12/24 06:42:08;;;;;;;58.72;17.25;;;8.30;99.90;;;;;;6166437;23;20020;-96
2021/12/24 06:44:34;;;;;;;58.90;17.00;;;8.30;99.90;;;;;;6168135;23;20027;-95
2021/12/24 06:47:00;;;;;;;62.28;18.55;;;8.20;99.90;;;;;;6193933;23;20024;-94
2021/12/24 06:49:26;;;;;;;54.78;15.23;;;8.30;99.90;;;;;;6170348;23;20020;-95
2021/12/24 06:51:52;;;;;;;64.32;18.33;;;8.40;99.90;;;;;;6203964;23;20027;-93
2021/12/24 06:54:18;;;;;;;53.88;17.05;;;8.30;99.90;;;;;;6179641;23;20056;-94
2021/12/24 06:56:45;;;;;;;64.43;17.35;;;8.20;99.90;;;;;;6176598;23;20107;-94
2021/12/24 06:59:11;;;;;;;51.85;15.75;;;8.20;99.90;;;;;;6175487;23;20055;-92
2021/12/24 07:01:36;;;;;;;54.38;16.85;;;8.30;99.90;;;;;;6181214;23;20059;-93
2021/12/24 07:04:03;;;;;;;55.67;16.02;;;8.20;99.90;;;;;;6190317;23;20024;-95
2021/12/24 07:06:28;;;;;;;65.22;16.63;;;8.20;99.90;;;;;;6197429;23;20093;-95
2021/12/24 07:08:55;;;;;;;52.67;14.88;;;8.20;99.90;;;;;;6196362;23;20071;-94
2021/12/24 07:11:21;;;;;;;55.22;15.90;;;8.40;99.90;;;;;;6197609;23;20024;-93
2021/12/24 07:13:47;;;;;;;65.65;15.75;;;8.20;99.90;;;;;;6221986;23;20086;-95
2021/12/24 07:16:13;;;;;;;53.80;14.48;;;8.10;99.90;;;;;;6246669;23;20078;-91
2021/12/24 07:18:39;;;;;;;57.33;16.27;;;8.30;99.90;;;;;;6221844;23;20028;-94
2021/12/24 07:21:05;;;;;;;50.08;14.20;;;8.10;99.90;;;;;;6197721;23;20044;-91
2021/12/24 07:23:31;;;;;;;56.72;15.38;;;8.00;99.90;;;;;;6195965;23;20063;-91
2021/12/24 07:25:57;;;;;;;58.63;14.48;;;8.30;99.90;;;;;;6195844;23;20082;-91
2021/12/24 07:28:23;;;;;;;44.17;13.65;;;8.10;99.90;;;;;;6196801;23;20024;-93
2021/12/24 07:30:56;;;;;;;50.55;13.98;;;8.30;99.90;;;;;;6195835;23;20024;-92
2021/12/24 07:33:22;;;;;;;57.60;15.23;;;8.50;99.90;;;;;;6220967;23;20020;-94
2021/12/24 07:35:47;;;;;;;54.05;14.57;;;8.00;99.90;;;;;;6220517;23;20020;-93
2021/12/24 07:38:13;;;;;;;44.35;13.52;;;8.20;99.90;;;;;;6221333;23;20095;-95
2021/12/24 07:40:44;;;;;;;51.85;14.70;;;8.00;99.90;;;;;;6195037;23;20020;-92
2021/12/24 07:43:12;;;;;;;47.75;14.02;;;8.10;99.90;;;;;;6195352;23;20387;-95
2021/12/24 07:45:39;;;;;;;48.33;12.75;;;8.30;99.90;;;;;;6197393;23;20024;-93
2021/12/24 07:48:15;;;;;;;39.05;11.82;;;8.00;99.90;;;;;;6196316;23;20023;-94
2021/12/24 07:53:12;;;;;;;45.10;12.32;;;8.10;99.90;;;;;;6220883;23;20023;-94
2021/12/24 07:55:39;;;;;;;43.90;12.35;;;8.00;99.90;;;;;;6220616;23;20021;-95
2021/12/24 07:58:06;;;;;;;35.78;11.00;;;7.90;99.90;;;;;;6220244;23;20020;-95
2021/12/24 08:00:33;;;;;;;42.22;12.98;;;8.00;99.90;;;;;;6194605;23;20051;-93
2021/12/24 08:03:01;;;;;;;50.08;12.13;;;7.80;99.90;;;;;;6195109;23;20024;-95
2021/12/24 08:05:27;;;;;;;54.53;13.73;;;8.00;99.90;;;;;;6197020;23;20024;-92
2021/12/24 08:07:54;;;;;;;52.70;13.40;;;8.10;99.90;;;;;;6223303;23;20467;-95
2021/12/24 08:10:24;;;;;;;38.95;12.20;;;8.00;99.90;;;;;;6222462;23;20012;-92
2021/12/24 08:12:51;;;;;;;40.17;11.73;;;8.10;99.90;;;;;;6197093;23;20020;-94
2021/12/24 08:15:18;;;;;;;44.58;12.05;;;8.10;99.90;;;;;;6222798;23;20023;-92
2021/12/24 08:17:45;;;;;;;39.55;11.13;;;7.90;99.90;;;;;;6196366;23;20031;-94
2021/12/24 08:20:12;;;;;;;47.42;12.02;;;8.10;99.90;;;;;;6196687;23;20020;-94
2021/12/24 08:22:38;;;;;;;41.40;11.60;;;8.20;99.90;;;;;;6197449;23;20024;-95
2021/12/24 08:25:08;;;;;;;41.17;12.32;;;8.20;99.90;;;;;;6197275;23;20344;-94
2021/12/24 08:27:35;;;;;;;55.95;13.15;;;8.10;99.90;;;;;;6196772;23;20020;-93
2021/12/24 08:30:03;;;;;;;37.60;11.55;;;8.20;99.90;;;;;;6196721;23;20020;-92
2021/12/24 08:32:29;;;;;;;46.80;14.02;;;8.10;99.90;;;;;;6196810;23;20027;-93
2021/12/24 08:34:55;;;;;;;38.53;10.10;;;8.20;99.90;;;;;;6197755;23;20020;-94
2021/12/24 08:37:23;;;;;;;46.53;11.23;;;8.10;99.90;;;;;;6221779;23;20062;-93
2021/12/24 08:39:49;;;;;;;35.90;11.38;;;8.10;99.90;;;;;;6197278;23;20028;-93
2021/12/24 08:42:17;;;;;;;41.28;10.90;;;8.10;99.90;;;;;;6223871;23;20019;-94
2021/12/24 08:44:43;;;;;;;42.60;10.75;;;8.10;99.90;;;;;;6197147;23;20352;-94
2021/12/24 08:47:08;;;;;;;42.13;10.73;;;8.10;99.90;;;;;;6196514;23;20075;-95
2021/12/24 08:49:34;;;;;;;46.80;12.05;;;8.20;99.90;;;;;;6222585;23;20330;-93
2021/12/24 08:52:00;;;;;;;35.95;10.07;;;8.10;99.90;;;;;;6198589;23;20054;-91
2021/12/24 08:54:26;;;;;;;44.38;10.55;;;8.50;99.90;;;;;;6197297;23;20042;-92
2021/12/24 08:56:53;;;;;;;45.03;9.90;;;8.30;99.90;;;;;;6223445;23;20024;-94
2021/12/24 08:59:18;;;;;;;50.53;11.15;;;8.20;99.90;;;;;;6222051;23;20102;-95
2021/12/24 09:01:45;;;;;;;37.80;9.13;;;8.00;99.90;;;;;;6198910;23;20441;-94
2021/12/24 09:04:12;;;;;;;46.95;10.60;;;8.10;99.90;;;;;;6197571;23;20016;-94
2021/12/24 09:06:38;;;;;;;54.90;10.55;;;8.00;99.90;;;;;;6197626;23;20031;-94
2021/12/24 09:09:06;;;;;;;53.38;10.27;;;8.00;99.90;;;;;;6196896;23;20074;-94
2021/12/24 09:11:41;;;;;;;42.28;8.40;;;8.10;99.90;;;;;;6196455;23;20507;-93
2021/12/24 09:14:07;;;;;;;49.85;9.02;;;8.00;99.90;;;;;;6196433;23;20016;-93
2021/12/24 09:16:34;;;;;;;44.53;8.45;;;8.00;99.90;;;;;;6221751;23;20022;-93
2021/12/24 09:19:04;;;;;;;41.63;8.90;;;8.00;99.90;;;;;;6196794;23;20447;-95
2021/12/24 09:21:31;;;;;;;42.13;8.38;;;7.80;99.90;;;;;;6196921;23;20085;-94
2021/12/24 09:23:57;;;;;;;60.92;10.07;;;8.40;99.90;;;;;;6221189;23;20016;-94
2021/12/24 09:26:28;;;;;;;39.15;7.57;;;8.00;99.90;;;;;;6197273;23;20027;-94
2021/12/24 09:28:55;;;;;;;42.92;8.15;;;7.90;99.90;;;;;;6223069;23;20020;-92
2021/12/24 09:31:21;;;;;;;47.35;8.23;;;8.00;99.90;;;;;;6222338;23;20050;-95
2021/12/24 09:33:46;;;;;;;37.30;7.82;;;8.00;99.90;;;;;;6222469;23;20020;-92
2021/12/24 09:36:12;;;;;;;33.65;7.13;;;8.00;99.90;;;;;;6199731;23;20024;-92
2021/12/24 09:38:38;;;;;;;39.08;7.47;;;8.10;99.90;;;;;;6197024;23;20032;-93
2021/12/24 09:41:04;;;;;;;47.17;8.43;;;8.30;99.90;;;;;;6221356;23;20012;-94
2021/12/24 09:43:29;;;;;;;37.13;7.75;;;8.10;99.90;;;;;;6221081;23;20448;-93
2021/12/24 09:45:55;;;;;;;51.38;8.82;;;8.10;99.90;;;;;;6222017;23;20051;-95
2021/12/24 09:48:21;;;;;;;45.83;9.23;;;7.90;99.90;;;;;;6196455;23;20012;-94
2021/12/24 09:50:46;;;;;;;50.05;8.55;;;7.90;99.90;;;;;;6197240;23;20102;-93
2021/12/24 09:53:12;;;;;;;34.63;8.50;;;8.20;99.90;;;;;;6221986;23;20074;-95
2021/12/24 09:55:38;;;;;;;46.08;8.65;;;8.10;99.90;;;;;;6196764;23;20024;-94
2021/12/24 09:58:04;;;;;;;44.28;8.75;;;8.10;99.90;;;;;;6197168;23;20444;-94
2021/12/24 10:00:34;;;;;;;25.55;7.78;;;8.20;99.90;;;;;;6197087;23;20016;-91
2021/12/24 10:03:00;;;;;;;41.65;8.20;;;8.20;99.90;;;;;;6221137;23;20090;-93
2021/12/24 10:05:41;;;;;;;37.47;8.93;;;8.20;99.90;;;;;;6222456;23;20020;-92
2021/12/24 10:08:23;;;;;;;42.28;9.35;;;8.20;99.90;;;;;;6196504;23;20024;-94
2021/12/24 10:11:11;;;;;;;;;;;8.30;99.90;;;;;;6197342;23;20024;-94
2021/12/24 10:13:44;;;;;;;37.50;7.60;;;8.30;99.90;;;;;;6196777;23;19915;-93
2021/12/24 10:16:12;;;;;;;40.17;8.47;;;8.20;99.90;;;;;;6221998;23;20027;-93
2021/12/24 10:18:44;;;;;;;29.80;7.25;;;8.20;99.90;;;;;;6196370;23;20074;-90
2021/12/24 10:21:19;;;;;;;45.70;8.85;;;8.20;99.90;;;;;;6197160;23;20444;-95
2021/12/24 10:23:56;;;;;;;32.20;7.10;;;8.20;99.90;;;;;;6196439;23;20367;-94
2021/12/24 10:26:37;;;;;;;37.53;7.95;;;8.20;99.90;;;;;;6196180;23;20012;-94
2021/12/24 10:29:18;;;;;;;23.70;7.50;;;8.30;99.90;;;;;;6196841;23;20096;-95
2021/12/24 10:31:56;;;;;;;24.40;6.72;;;8.40;99.90;;;;;;6196865;23;20379;-92
2021/12/24 10:34:27;;;;;;;34.38;7.57;;;8.40;99.90;;;;;;6222063;23;20024;-94
2021/12/24 10:37:05;;;;;;;36.00;8.52;;;8.30;99.90;;;;;;6196298;23;20021;-93
2021/12/24 10:39:40;;;;;;;35.03;7.82;;;8.30;99.90;;;;;;6196808;23;20020;-93
2021/12/24 10:42:15;;;;;;;34.08;7.78;;;8.30;99.90;;;;;;6196666;23;20020;-93
2021/12/24 10:44:42;;;;;;;34.35;8.32;;;8.30;99.90;;;;;;6195992;23;20086;-92
2021/12/24 10:47:31;;;;;;;26.60;7.70;;;8.40;99.90;;;;;;6195970;23;20082;-92
2021/12/24 10:53:21;;;;;;;34.97;7.75;;;8.30;99.90;;;;;;6248189;23;20018;-92
2021/12/24 10:55:53;;;;;;;29.88;7.72;;;8.50;99.90;;;;;;6221677;23;20024;-93
2021/12/24 10:58:25;;;;;;;45.00;8.50;;;8.30;99.90;;;;;;6196944;23;20035;-94
2021/12/24 11:00:52;;;;;;;35.58;8.75;;;8.60;99.90;;;;;;6196034;23;20444;-93
2021/12/24 11:03:28;;;;;;;31.50;8.43;;;8.30;99.90;;;;;;6221389;23;20031;-93
2021/12/24 11:06:30;;;;;;;31.73;11.25;;;8.30;99.90;;;;;;6196147;23;20016;-94
2021/12/24 11:08:56;;;;;;;35.88;9.27;;;8.30;99.90;;;;;;6221129;23;20027;-92
2021/12/24 11:11:32;;;;;;;36.67;7.13;;;8.40;99.90;;;;;;6196101;23;20032;-93
2021/12/24 11:13:58;;;;;;;32.70;8.20;;;8.30;99.90;;;;;;6220534;23;20085;-94
2021/12/24 11:16:32;;;;;;;43.47;10.00;;;8.40;99.90;;;;;;6221257;23;20016;-92
2021/12/24 11:19:01;;;;;;;25.15;7.95;;;8.70;99.90;;;;;;6221252;23;20028;-93
2021/12/24 11:21:34;;;;;;;36.95;8.60;;;8.30;99.90;;;;;;6196132;23;20024;-92
2021/12/24 11:24:00;;;;;;;37.00;8.40;;;8.30;99.90;;;;;;6195292;23;20035;-93
2021/12/24 11:26:29;;;;;;;42.58;9.57;;;8.60;99.90;;;;;;6196336;23;20027;-93
2021/12/24 11:28:56;;;;;;;41.30;10.18;;;8.30;99.90;;;;;;6196203;23;20016;-93
2021/12/24 11:31:28;;;;;;;32.60;8.18;;;8.20;99.90;;;;;;6220830;23;20008;-93
2021/12/24 11:33:54;;;;;;;31.58;8.73;;;8.40;99.90;;;;;;6196370;23;20055;-92
2021/12/24 11:37:16;;;;;;;26.55;6.88;;;8.20;99.90;;;;;;6195763;23;20103;-93
2021/12/24 11:39:42;;;;;;;;;;;8.30;99.90;;;;;;6197437;23;20024;-93
2021/12/24 11:42:16;;;;;;;26.38;8.15;;;8.30;99.90;;;;;;6222911;23;20363;-94
2021/12/24 11:44:42;;;;;;;33.17;6.75;;;8.30;99.90;;;;;;6223405;23;20153;-93
2021/12/24 11:47:08;;;;;;;33.63;8.25;;;8.30;99.90;;;;;;6198267;23;20031;-94
2021/12/24 11:49:37;;;;;;;24.60;6.72;;;8.20;99.90;;;;;;6198692;23;20016;-94
2021/12/24 11:52:04;;;;;;;22.42;5.07;;;8.40;99.90;;;;;;6224843;23;20031;-92
2021/12/24 11:54:30;;;;;;;16.40;4.63;;;8.20;99.90;;;;;;6198996;23;20016;-94
2021/12/24 11:56:58;;;;;;;22.90;4.80;;;8.20;99.90;;;;;;6199069;23;20070;-93
2021/12/24 11:59:37;;;;;;;10.18;3.30;;;8.20;99.90;;;;;;6222637;23;20016;-91
2021/12/24 12:02:04;;;;;;;10.75;3.30;;;8.10;99.90;;;;;;6225874;23;20036;-94
2021/12/24 12:04:29;;;;;;;7.63;2.53;;;8.20;99.90;;;;;;6201055;23;20096;-92
2021/12/24 12:07:17;;;;;;;5.07;2.10;;;8.00;99.90;;;;;;6223224;23;20020;-95
2021/12/24 12:09:47;;;;;;;6.28;2.50;;;7.80;99.90;;;;;;6198104;23;20024;-94
2021/12/24 12:12:16;;;;;;;3.60;1.60;;;7.80;99.90;;;;;;6224232;23;20050;-93
2021/12/24 12:14:42;;;;;;;2.30;1.17;;;7.60;99.90;;;;;;6199024;23;20073;-94
2021/12/24 12:17:08;;;;;;;2.38;1.08;;;7.40;99.90;;;;;;6199238;23;20079;-95
2021/12/24 12:22:44;;;;;;;4.43;1.60;;;7.20;99.90;;;;;;6223174;23;20058;-94
2021/12/24 12:25:11;;;;;;;;;;;7.40;99.90;;;;;;6198078;23;20026;-92
2021/12/24 12:27:44;;;;;;;4.60;1.70;;;7.60;99.90;;;;;;6198074;23;19954;-95
2021/12/24 12:30:34;;;;;;;2.47;1.83;;;7.00;99.90;;;;;;6198856;23;20016;-95
2021/12/24 12:33:06;;;;;;;6.23;2.10;;;7.00;99.90;;;;;;6199085;23;20458;-94
2021/12/24 12:35:45;;;;;;;2.65;1.90;;;7.00;99.90;;;;;;6223347;23;20026;-95
2021/12/24 12:38:29;;;;;;;3.38;2.10;;;7.10;99.90;;;;;;6198962;23;20028;-94
2021/12/24 12:41:22;;;;;;;4.20;2.25;;;7.00;99.90;;;;;;6198975;23;20078;-94
2021/12/24 12:43:50;;;;;;;5.22;2.13;;;6.90;99.90;;;;;;6197953;23;20028;-95
2021/12/24 12:46:34;;;;;;;3.90;2.20;;;7.10;99.90;;;;;;6198465;23;20085;-95
2021/12/24 12:49:05;;;;;;;6.75;3.22;;;7.00;99.90;;;;;;6199511;23;20024;-95
2021/12/24 12:51:54;;;;;;;3.00;2.13;;;7.00;99.90;;;;;;6199374;23;20039;-94
2021/12/24 12:54:37;;;;;;;5.10;2.17;;;7.10;99.90;;;;;;6225139;23;20020;-94
2021/12/24 12:57:15;;;;;;;3.72;2.38;;;7.00;99.90;;;;;;6200040;23;20020;-94
2021/12/24 13:00:18;;;;;;;2.97;2.28;;;7.00;99.90;;;;;;6198542;23;20379;-95
2021/12/24 13:02:57;;;;;;;2.90;2.15;;;7.00;99.90;;;;;;6199243;23;20020;-95
2021/12/24 13:05:44;;;;;;;2.30;2.10;;;7.10;99.90;;;;;;6198330;23;20026;-95
2021/12/24 13:08:14;;;;;;;3.50;2.05;;;7.30;99.90;;;;;;6197494;23;20020;-95
2021/12/24 13:10:52;;;;;;;3.45;2.42;;;7.00;99.90;;;;;;6199631;23;20024;-95
2021/12/24 13:13:18;;;;;;;3.63;2.67;;;7.00;99.90;;;;;;6198268;23;20074;-94
2021/12/24 13:15:45;;;;;;;3.15;2.22;;;7.10;99.90;;;;;;6197983;23;20352;-95
2021/12/24 13:18:36;;;;;;;3.10;2.40;;;7.20;99.90;;;;;;6224362;23;20448;-96
2021/12/24 13:23:34;;;;;;;3.80;3.00;;;6.90;99.90;;;;;;6225861;23;20047;-95
2021/12/24 13:26:17;;;;;;;2.63;2.40;;;7.10;99.90;;;;;;6199149;23;20017;-95
2021/12/24 13:29:00;;;;;;;4.10;2.70;;;7.30;99.90;;;;;;6200724;23;20055;-94
2021/12/24 13:31:28;;;;;;;3.53;2.90;;;6.90;99.90;;;;;;6199242;23;20027;-95
2021/12/24 13:33:54;;;;;;;4.35;3.40;;;7.20;99.90;;;;;;6200462;23;20024;-95
2021/12/24 13:36:28;;;;;;;3.45;2.58;;;7.00;99.90;;;;;;6199551;23;20027;-95
2021/12/24 13:39:11;;;;;;;2.75;2.30;;;6.90;99.90;;;;;;6200716;23;20020;-93
2021/12/24 13:41:39;;;;;;;3.83;3.03;;;6.80;99.90;;;;;;6220825;23;20012;-93
2021/12/24 13:44:25;;;;;;;4.22;2.88;;;6.90;99.90;;;;;;6192069;23;20016;-95
2021/12/24 13:47:12;;;;;;;3.33;2.20;;;6.70;99.90;;;;;;6195486;23;20044;-93
2021/12/24 13:55:49;;;;;;;8.38;2.80;;;6.60;99.90;;;;;;6095904;23;20033;-92
2021/12/24 13:58:23;;;;;;;3.90;2.83;;;6.80;99.90;;;;;;6101132;23;20022;-92
2021/12/24 14:00:55;;;;;;;5.63;3.05;;;6.50;99.90;;;;;;6076170;23;20033;-94
2021/12/24 14:03:30;;;;;;;4.20;3.38;;;6.90;99.90;;;;;;6077340;23;20022;-94
2021/12/24 14:06:00;;;;;;;4.10;3.30;;;6.70;99.90;;;;;;6077476;23;20081;-93
2021/12/24 14:08:32;;;;;;;6.63;3.60;;;6.60;99.90;;;;;;6076790;23;20022;-94
2021/12/24 14:11:19;;;;;;;3.72;2.88;;;7.00;99.90;;;;;;6076866;23;20104;-93
2021/12/24 14:13:53;;;;;;;3.85;3.00;;;6.50;99.90;;;;;;6076869;23;20109;-93
2021/12/24 14:16:57;;;;;;;4.60;2.50;;;6.70;99.90;;;;;;6076891;23;20029;-93
2021/12/24 14:19:28;;;;;;;2.60;2.25;;;6.50;99.90;;;;;;6103383;23;20057;-90
2021/12/24 14:25:34;;;;;;;2.80;2.50;;;6.40;99.90;;;;;;6135508;23;20912;-93
2021/12/24 14:28:02;;;;;;;2.83;2.53;;;6.40;99.90;;;;;;6196160;23;20056;-94
2021/12/24 14:30:31;;;;;;;29.27;23.33;;;6.40;99.90;;;;;;6223691;23;20024;-93
2021/12/24 14:32:59;;;;;;;4.70;4.05;;;6.30;99.90;;;;;;6196397;23;20060;-95
2021/12/24 14:35:27;;;;;;;5.25;4.75;;;6.40;99.90;;;;;;6194729;23;20356;-95
2021/12/24 14:37:54;;;;;;;12.25;10.68;;;6.30;99.90;;;;;;6198331;23;20020;-94
2021/12/24 14:40:21;;;;;;;7.35;6.65;;;6.30;99.90;;;;;;6194989;23;20028;-93
2021/12/24 14:42:50;;;;;;;8.65;7.85;;;6.40;99.90;;;;;;6194935;23;20340;-94
2021/12/24 14:45:39;;;;;;;23.70;21.00;;;6.20;99.90;;;;;;6195711;23;20024;-95
2021/12/24 14:48:04;;;;;;;7.78;4.70;;;5.90;99.90;;;;;;6195298;23;20031;-93
2021/12/24 14:51:09;;;;;;;7.13;5.88;;;6.10;99.90;;;;;;6195137;23;20103;-94
2021/12/24 14:53:38;;;;;;;7.97;4.32;;;6.10;99.90;;;;;;6191437;23;20099;-95
2021/12/24 14:56:45;;;;;;;8.00;7.20;;;6.10;99.90;;;;;;6195966;23;20059;-92
2021/12/24 14:59:16;;;;;;;8.32;7.40;;;6.00;99.90;;;;;;6173803;23;20348;-93
2021/12/24 15:01:47;;;;;;;4.65;3.67;;;6.00;99.90;;;;;;6209948;23;20103;-95